createdAt,value
2018-05-02T00:00:29.274Z,16.50
2018-05-02T00:01:33.457Z,15.00
2018-05-02T00:02:37.873Z,16.50
2018-05-02T00:03:41.957Z,12.50
2018-05-02T00:04:46.151Z,12.50
2018-05-02T00:05:50.340Z,5.00
2018-05-02T00:06:54.447Z,12.00
2018-05-02T00:07:58.560Z,14.00
2018-05-02T00:09:02.702Z,10.50
2018-05-02T00:10:06.919Z,12.00
2018-05-02T00:11:11.145Z,10.00
2018-05-02T00:12:15.294Z,11.50
2018-05-02T00:13:19.674Z,13.50
2018-05-02T00:14:24.232Z,13.00
2018-05-02T00:15:28.456Z,14.50
2018-05-02T00:16:32.671Z,10.00
2018-05-02T00:17:36.784Z,12.50
2018-05-02T00:18:40.892Z,8.50
2018-05-02T00:19:45.094Z,8.50
2018-05-02T00:20:49.491Z,9.50
2018-05-02T00:21:53.617Z,14.50
2018-05-02T00:22:57.749Z,6.00
2018-05-02T00:24:01.986Z,9.50
2018-05-02T00:25:06.491Z,14.00
2018-05-02T00:26:10.616Z,11.00
2018-05-02T00:27:15.162Z,11.50
2018-05-02T00:28:19.291Z,12.50
2018-05-02T00:29:23.778Z,13.50
2018-05-02T00:30:28.180Z,18.50
2018-05-02T00:31:32.342Z,13.00
2018-05-02T00:32:37.111Z,8.00
2018-05-02T00:33:41.539Z,7.50
2018-05-02T00:34:45.729Z,10.00
2018-05-02T00:35:49.839Z,10.00
2018-05-02T00:36:53.953Z,8.00
2018-05-02T00:37:58.131Z,10.00
2018-05-02T00:39:02.366Z,11.00
2018-05-02T00:40:06.560Z,8.50
2018-05-02T00:41:10.663Z,10.00
2018-05-02T00:42:15.301Z,8.00
2018-05-02T00:43:20.496Z,7.50
2018-05-02T00:44:24.678Z,12.00
2018-05-02T00:45:29.666Z,22.00
2018-05-02T00:46:33.797Z,7.50
2018-05-02T00:47:39.023Z,6.00
2018-05-02T00:48:51.933Z,9.00
2018-05-02T00:49:56.026Z,9.00
2018-05-02T00:51:00.433Z,10.50
2018-05-02T00:52:04.557Z,9.50
2018-05-02T00:53:08.631Z,8.00
2018-05-02T00:54:12.813Z,8.50
2018-05-02T00:55:16.971Z,8.00
2018-05-02T00:56:21.190Z,8.50
2018-05-02T00:57:25.713Z,7.50
2018-05-02T00:58:29.939Z,8.50
2018-05-02T00:59:34.120Z,7.50
2018-05-02T01:00:39.519Z,17.50
2018-05-02T01:01:43.707Z,10.00
2018-05-02T01:02:47.850Z,9.50
2018-05-02T01:03:52.268Z,14.50
2018-05-02T01:04:56.367Z,6.50
2018-05-02T01:06:00.560Z,7.00
2018-05-02T01:07:04.692Z,10.00
2018-05-02T01:08:08.896Z,5.00
2018-05-02T01:09:13.031Z,8.50
2018-05-02T01:10:17.955Z,6.00
2018-05-02T01:11:22.071Z,4.00
2018-05-02T01:12:26.410Z,6.50
2018-05-02T01:13:30.645Z,6.50
2018-05-02T01:14:35.055Z,9.00
2018-05-02T01:15:40.418Z,14.50
2018-05-02T01:16:44.823Z,10.00
2018-05-02T01:17:48.988Z,6.50
2018-05-02T01:18:53.105Z,5.00
2018-05-02T01:19:57.200Z,10.50
2018-05-02T01:21:01.320Z,13.50
2018-05-02T01:22:05.531Z,5.00
2018-05-02T01:23:10.362Z,8.50
2018-05-02T01:24:14.707Z,6.00
2018-05-02T01:25:18.831Z,6.00
2018-05-02T01:26:23.052Z,8.00
2018-05-02T01:27:27.150Z,5.00
2018-05-02T01:28:31.365Z,5.50
2018-05-02T01:29:35.915Z,8.00
2018-05-02T01:30:41.187Z,12.00
2018-05-02T01:31:45.427Z,4.00
2018-05-02T01:32:49.525Z,8.50
2018-05-02T01:33:53.709Z,7.50
2018-05-02T01:34:57.823Z,8.00
2018-05-02T01:36:02.249Z,9.00
2018-05-02T01:37:06.367Z,7.00
2018-05-02T01:38:10.467Z,9.50
2018-05-02T01:39:14.661Z,9.50
2018-05-02T01:40:19.729Z,6.00
2018-05-02T01:41:23.813Z,6.00
2018-05-02T01:42:28.332Z,10.00
2018-05-02T01:43:32.651Z,8.00
2018-05-02T01:44:36.744Z,5.00
2018-05-02T01:45:41.469Z,13.00
2018-05-02T01:46:45.623Z,10.50
2018-05-02T01:47:49.809Z,8.00
2018-05-02T01:49:30.253Z,4.50
2018-05-02T01:50:34.395Z,6.50
2018-05-02T01:51:38.833Z,9.00
2018-05-02T01:52:43.021Z,10.50
2018-05-02T01:53:47.413Z,8.00
2018-05-02T01:54:51.839Z,10.50
2018-05-02T01:55:56.041Z,6.50
2018-05-02T01:57:00.629Z,19.00
2018-05-02T01:58:04.779Z,6.00
2018-05-02T01:59:08.855Z,6.00
2018-05-02T02:00:14.069Z,12.00
2018-05-02T02:01:18.197Z,8.00
2018-05-02T02:02:22.684Z,7.50
2018-05-02T02:03:26.777Z,8.50
2018-05-02T02:04:30.900Z,4.00
2018-05-02T02:05:35.259Z,6.50
2018-05-02T02:06:39.359Z,7.00
2018-05-02T02:07:43.544Z,9.50
2018-05-02T02:08:48.216Z,8.50
2018-05-02T02:09:52.315Z,5.50
2018-05-02T02:10:56.459Z,7.00
2018-05-02T02:12:00.585Z,7.50
2018-05-02T02:13:04.809Z,7.50
2018-05-02T02:14:09.015Z,10.00
2018-05-02T02:15:16.620Z,6.00
2018-05-02T02:16:21.504Z,14.00
2018-05-02T02:17:25.771Z,11.50
2018-05-02T02:18:29.898Z,8.50
2018-05-02T02:19:34.128Z,7.00
2018-05-02T02:20:38.551Z,5.50
2018-05-02T02:21:42.662Z,5.50
2018-05-02T02:22:47.075Z,8.50
2018-05-02T02:23:51.403Z,19.00
2018-05-02T02:24:55.993Z,12.50
2018-05-02T02:26:00.153Z,8.00
2018-05-02T02:27:04.663Z,5.50
2018-05-02T02:28:09.448Z,10.50
2018-05-02T02:29:13.649Z,4.00
2018-05-02T02:30:18.772Z,8.00
2018-05-02T02:31:22.924Z,6.00
2018-05-02T02:32:27.095Z,4.00
2018-05-02T02:33:31.581Z,8.00
2018-05-02T02:34:35.756Z,6.00
2018-05-02T02:35:39.863Z,11.50
2018-05-02T02:36:45.148Z,16.00
2018-05-02T02:37:49.254Z,9.50
2018-05-02T02:38:53.367Z,5.00
2018-05-02T02:39:57.862Z,6.50
2018-05-02T02:41:01.953Z,8.00
2018-05-02T02:42:06.071Z,6.00
2018-05-02T02:43:10.162Z,4.00
2018-05-02T02:44:14.325Z,7.50
2018-05-02T02:45:19.090Z,10.00
2018-05-02T02:46:23.295Z,9.00
2018-05-02T02:47:27.392Z,4.00
2018-05-02T02:48:31.517Z,11.00
2018-05-02T02:49:35.736Z,7.50
2018-05-02T02:50:39.934Z,4.00
2018-05-02T02:51:44.116Z,6.00
2018-05-02T02:52:48.522Z,4.00
2018-05-02T02:53:52.691Z,4.00
2018-05-02T02:54:56.903Z,4.00
2018-05-02T02:56:01.017Z,6.50
2018-05-02T02:57:05.155Z,12.00
2018-05-02T02:58:09.557Z,6.50
2018-05-02T02:59:13.758Z,10.00
2018-05-02T03:00:18.096Z,6.00
2018-05-02T03:01:22.204Z,7.00
2018-05-02T03:02:26.401Z,10.50
2018-05-02T03:03:30.500Z,5.50
2018-05-02T03:04:35.002Z,7.50
2018-05-02T03:05:39.125Z,4.00
2018-05-02T03:06:44.200Z,7.00
2018-05-02T03:07:48.380Z,4.50
2018-05-02T03:08:52.744Z,11.00
2018-05-02T03:09:56.873Z,7.00
2018-05-02T03:11:01.013Z,10.00
2018-05-02T03:12:05.185Z,8.00
2018-05-02T03:13:09.272Z,8.50
2018-05-02T03:14:14.159Z,10.00
2018-05-02T03:15:19.499Z,12.50
2018-05-02T03:16:24.039Z,8.50
2018-05-02T03:17:28.159Z,5.50
2018-05-02T03:18:32.293Z,10.00
2018-05-02T03:19:36.389Z,9.50
2018-05-02T03:20:40.569Z,8.00
2018-05-02T03:21:45.315Z,15.00
2018-05-02T03:22:49.815Z,11.50
2018-05-02T03:23:53.903Z,10.00
2018-05-02T03:24:58.129Z,11.00
2018-05-02T03:26:02.261Z,5.50
2018-05-02T03:27:06.384Z,6.00
2018-05-02T03:28:10.550Z,10.50
2018-05-02T03:29:14.975Z,6.00
2018-05-02T03:30:20.199Z,48.50
2018-05-02T03:31:24.409Z,14.00
2018-05-02T03:32:28.515Z,7.50
2018-05-02T03:33:32.757Z,12.00
2018-05-02T03:34:36.877Z,12.50
2018-05-02T03:35:41.318Z,6.50
2018-05-02T03:36:46.099Z,10.50
2018-05-02T03:37:50.275Z,6.50
2018-05-02T03:38:54.494Z,8.50
2018-05-02T03:39:58.625Z,11.00
2018-05-02T03:41:02.849Z,11.00
2018-05-02T03:42:06.949Z,8.50
2018-05-02T03:43:11.035Z,3.50
2018-05-02T03:44:15.583Z,12.50
2018-05-02T03:45:27.151Z,12.00
2018-05-02T03:46:31.680Z,12.50
2018-05-02T03:47:35.943Z,13.50
2018-05-02T03:48:40.409Z,14.00
2018-05-02T03:49:45.715Z,10.00
2018-05-02T03:50:50.029Z,6.50
2018-05-02T03:51:54.429Z,10.00
2018-05-02T03:52:58.931Z,4.00
2018-05-02T03:54:03.377Z,10.00
2018-05-02T03:55:07.982Z,15.00
2018-05-02T03:56:12.131Z,8.50
2018-05-02T03:58:32.269Z,12.00
2018-05-02T03:59:46.419Z,7.00
2018-05-02T04:02:02.127Z,13.00
2018-05-02T04:03:17.287Z,13.50
2018-05-02T04:05:33.758Z,6.50
2018-05-02T04:06:48.464Z,8.00
2018-05-02T04:07:52.671Z,8.50
2018-05-02T04:08:56.901Z,7.50
2018-05-02T04:10:01.021Z,5.00
2018-05-02T04:11:05.193Z,6.50
2018-05-02T04:12:09.726Z,4.00
2018-05-02T04:13:14.715Z,10.00
2018-05-02T04:14:18.889Z,6.00
2018-05-02T04:15:23.466Z,11.50
2018-05-02T04:16:27.553Z,8.50
2018-05-02T04:17:31.722Z,8.00
2018-05-02T04:18:36.173Z,10.50
2018-05-02T04:19:40.267Z,4.00
2018-05-02T04:20:44.445Z,6.00
2018-05-02T04:21:49.531Z,6.00
2018-05-02T04:22:53.700Z,9.50
2018-05-02T04:23:57.799Z,4.00
2018-05-02T04:25:02.263Z,8.00
2018-05-02T04:26:06.436Z,6.50
2018-05-02T04:27:10.511Z,10.00
2018-05-02T04:28:14.685Z,8.00
2018-05-02T04:29:18.851Z,11.50
2018-05-02T04:30:24.557Z,11.00
2018-05-02T04:31:28.930Z,3.00
2018-05-02T04:32:33.061Z,7.50
2018-05-02T04:33:37.350Z,13.50
2018-05-02T04:34:41.555Z,9.00
2018-05-02T04:35:45.726Z,10.00
2018-05-02T04:36:49.827Z,19.50
2018-05-02T04:37:53.935Z,13.00
2018-05-02T04:38:58.045Z,9.00
2018-05-02T04:40:02.317Z,12.50
2018-05-02T04:41:06.455Z,12.00
2018-05-02T04:42:10.607Z,12.50
2018-05-02T04:43:15.921Z,10.50
2018-05-02T04:44:20.069Z,11.50
2018-05-02T04:45:25.253Z,32.00
2018-05-02T04:46:29.362Z,9.50
2018-05-02T04:47:33.584Z,6.50
2018-05-02T04:48:37.747Z,14.00
2018-05-02T04:49:42.211Z,15.50
2018-05-02T04:50:47.007Z,17.00
2018-05-02T04:51:51.228Z,8.50
2018-05-02T04:52:55.330Z,5.00
2018-05-02T04:53:59.443Z,10.50
2018-05-02T04:55:03.598Z,9.50
2018-05-02T04:56:08.143Z,11.50
2018-05-02T04:57:12.233Z,9.50
2018-05-02T04:58:16.351Z,13.00
2018-05-02T04:59:20.469Z,9.50
2018-05-02T05:00:25.543Z,21.00
2018-05-02T05:01:30.111Z,20.00
2018-05-02T05:02:34.259Z,18.50
2018-05-02T05:03:38.541Z,15.00
2018-05-02T05:04:42.967Z,21.50
2018-05-02T05:05:47.968Z,15.00
2018-05-02T05:06:52.214Z,18.00
2018-05-02T05:07:56.325Z,15.00
2018-05-02T05:09:00.872Z,17.00
2018-05-02T05:10:04.979Z,17.00
2018-05-02T05:11:09.229Z,13.00
2018-05-02T05:12:13.520Z,13.50
2018-05-02T05:13:17.641Z,16.50
2018-05-02T05:14:23.293Z,14.50
2018-05-02T05:15:27.767Z,19.00
2018-05-02T05:16:31.889Z,10.00
2018-05-02T05:17:36.164Z,16.00
2018-05-02T05:18:40.309Z,17.00
2018-05-02T05:19:44.703Z,25.00
2018-05-02T05:20:49.775Z,20.50
2018-05-02T05:21:53.888Z,16.00
2018-05-02T05:22:58.125Z,13.00
2018-05-02T05:24:02.261Z,18.50
2018-05-02T05:25:06.373Z,9.50
2018-05-02T05:26:10.491Z,13.50
2018-05-02T05:27:14.950Z,11.50
2018-05-02T05:28:19.251Z,13.50
2018-05-02T05:29:23.383Z,11.00
2018-05-02T05:30:27.770Z,29.00
2018-05-02T05:31:31.895Z,22.00
2018-05-02T05:32:36.177Z,18.00
2018-05-02T05:33:40.681Z,21.50
2018-05-02T05:34:44.796Z,19.00
2018-05-02T05:35:49.581Z,18.00
2018-05-02T05:36:53.750Z,18.00
2018-05-02T05:37:57.845Z,19.00
2018-05-02T05:39:02.065Z,19.50
2018-05-02T05:40:06.501Z,16.00
2018-05-02T05:41:10.575Z,17.00
2018-05-02T05:42:14.707Z,15.50
2018-05-02T05:43:19.035Z,19.50
2018-05-02T05:44:23.249Z,15.00
2018-05-02T05:45:28.541Z,26.00
2018-05-02T05:46:32.933Z,26.50
2018-05-02T05:47:37.126Z,17.50
2018-05-02T05:48:41.421Z,19.50
2018-05-02T05:49:45.581Z,20.50
2018-05-02T05:50:49.853Z,23.50
2018-05-02T05:51:54.324Z,18.00
2018-05-02T05:52:58.467Z,21.00
2018-05-02T05:54:02.735Z,22.00
2018-05-02T05:55:06.815Z,26.50
2018-05-02T05:56:10.951Z,24.00
2018-05-02T05:57:15.063Z,37.50
2018-05-02T05:58:19.503Z,23.00
2018-05-02T05:59:23.741Z,29.50
2018-05-02T06:00:28.088Z,22.00
2018-05-02T06:01:32.603Z,27.50
2018-05-02T06:02:36.919Z,21.00
2018-05-02T06:03:41.105Z,25.50
2018-05-02T06:04:45.636Z,26.00
2018-05-02T06:05:49.768Z,21.50
2018-05-02T06:06:53.948Z,17.00
2018-05-02T06:07:58.064Z,18.00
2018-05-02T06:09:02.169Z,16.00
2018-05-02T06:10:06.361Z,13.50
2018-05-02T06:11:10.485Z,24.50
2018-05-02T06:12:14.676Z,14.00
2018-05-02T06:13:18.835Z,22.00
2018-05-02T06:14:22.962Z,17.00
2018-05-02T06:15:27.460Z,41.00
2018-05-02T06:16:31.942Z,25.00
2018-05-02T06:17:36.402Z,11.00
2018-05-02T06:18:40.579Z,12.75
2018-05-02T06:19:45.673Z,12.50
2018-05-02T06:20:49.888Z,21.00
2018-05-02T06:21:53.999Z,14.50
2018-05-02T06:22:58.435Z,17.00
2018-05-02T06:24:02.611Z,24.00
2018-05-02T06:25:06.920Z,20.50
2018-05-02T06:26:11.126Z,13.50
2018-05-02T06:27:15.318Z,14.00
2018-05-02T06:28:19.795Z,18.00
2018-05-02T06:29:23.923Z,18.50
2018-05-02T06:30:28.652Z,34.00
2018-05-02T06:31:33.289Z,25.50
2018-05-02T06:32:37.732Z,27.50
2018-05-02T06:33:41.975Z,21.75
2018-05-02T06:34:47.291Z,27.50
2018-05-02T06:35:51.402Z,22.75
2018-05-02T06:36:55.679Z,19.75
2018-05-02T06:37:59.833Z,29.50
2018-05-02T06:39:04.044Z,20.50
2018-05-02T06:40:08.256Z,26.00
2018-05-02T06:41:12.666Z,21.50
2018-05-02T06:42:16.820Z,30.50
2018-05-02T06:43:20.933Z,19.00
2018-05-02T06:44:25.139Z,23.50
2018-05-02T06:45:29.387Z,28.00
2018-05-02T06:46:33.496Z,27.50
2018-05-02T06:47:37.866Z,21.50
2018-05-02T06:48:42.155Z,22.50
2018-05-02T06:49:46.379Z,18.50
2018-05-02T06:50:51.567Z,19.00
2018-05-02T06:51:55.912Z,21.00
2018-05-02T06:53:00.022Z,23.00
2018-05-02T06:54:04.506Z,13.00
2018-05-02T06:55:08.736Z,21.50
2018-05-02T06:56:12.926Z,17.50
2018-05-02T06:57:17.058Z,14.00
2018-05-02T06:58:21.202Z,21.00
2018-05-02T06:59:26.265Z,18.75
2018-05-02T07:00:31.059Z,14.00
2018-05-02T07:01:35.268Z,17.25
2018-05-02T07:02:39.552Z,19.00
2018-05-02T07:03:43.647Z,14.00
2018-05-02T07:04:48.332Z,14.00
2018-05-02T07:05:53.748Z,15.00
2018-05-02T07:06:57.836Z,12.00
2018-05-02T07:08:01.974Z,17.75
2018-05-02T07:09:06.770Z,12.00
2018-05-02T07:10:10.984Z,21.25
2018-05-02T07:11:15.208Z,20.00
2018-05-02T07:12:19.660Z,29.00
2018-05-02T07:13:23.892Z,23.00
2018-05-02T07:14:28.509Z,21.00
2018-05-02T07:15:32.686Z,25.00
2018-05-02T07:16:36.965Z,24.00
2018-05-02T07:17:41.198Z,23.75
2018-05-02T07:18:45.816Z,18.50
2018-05-02T07:19:49.952Z,22.50
2018-05-02T07:20:54.124Z,27.00
2018-05-02T07:21:58.224Z,22.00
2018-05-02T07:23:02.430Z,27.00
2018-05-02T07:24:06.540Z,18.00
2018-05-02T07:25:10.965Z,15.00
2018-05-02T07:26:15.099Z,19.50
2018-05-02T07:27:19.315Z,18.00
2018-05-02T07:28:23.456Z,12.50
2018-05-02T07:29:27.662Z,8.50
2018-05-02T07:30:32.184Z,18.00
2018-05-02T07:31:36.468Z,37.50
2018-05-02T07:32:40.762Z,19.50
2018-05-02T07:33:44.880Z,20.50
2018-05-02T07:34:49.143Z,14.50
2018-05-02T07:35:53.288Z,18.50
2018-05-02T07:36:57.500Z,26.00
2018-05-02T07:38:02.042Z,24.00
2018-05-02T07:39:07.440Z,17.00
2018-05-02T07:40:11.672Z,18.50
2018-05-02T07:41:15.796Z,16.75
2018-05-02T07:42:19.930Z,20.00
2018-05-02T07:43:24.716Z,19.50
2018-05-02T07:44:28.844Z,29.00
2018-05-02T07:45:33.171Z,25.50
2018-05-02T07:46:37.472Z,17.00
2018-05-02T07:47:41.610Z,16.00
2018-05-02T07:48:46.588Z,19.00
2018-05-02T07:49:51.021Z,18.50
2018-05-02T07:50:55.193Z,20.00
2018-05-02T07:51:59.452Z,16.50
2018-05-02T07:53:03.817Z,19.00
2018-05-02T07:54:07.960Z,18.50
2018-05-02T07:55:12.067Z,17.50
2018-05-02T07:56:16.202Z,30.00
2018-05-02T07:57:20.402Z,32.00
2018-05-02T07:58:25.293Z,20.25
2018-05-02T07:59:29.414Z,24.00
2018-05-02T08:00:33.693Z,23.50
2018-05-02T08:01:37.884Z,24.00
2018-05-02T08:02:42.419Z,31.75
2018-05-02T08:03:46.538Z,16.75
2018-05-02T08:04:50.734Z,30.50
2018-05-02T08:05:54.840Z,20.50
2018-05-02T08:06:59.010Z,16.50
2018-05-02T08:08:03.232Z,22.75
2018-05-02T08:09:07.443Z,19.00
2018-05-02T08:10:11.570Z,13.50
2018-05-02T08:11:15.804Z,15.75
2018-05-02T08:12:19.954Z,12.00
2018-05-02T08:13:24.066Z,15.50
2018-05-02T08:14:29.420Z,10.50
2018-05-02T08:15:33.863Z,22.50
2018-05-02T08:16:38.175Z,17.00
2018-05-02T08:17:42.350Z,15.00
2018-05-02T08:18:46.450Z,15.50
2018-05-02T08:19:51.466Z,22.50
2018-05-02T08:20:55.693Z,17.50
2018-05-02T08:21:59.932Z,27.50
2018-05-02T08:23:04.027Z,19.00
2018-05-02T08:24:08.171Z,15.00
2018-05-02T08:25:12.664Z,10.75
2018-05-02T08:26:16.820Z,14.00
2018-05-02T08:27:21.003Z,18.50
2018-05-02T08:28:25.110Z,30.00
2018-05-02T08:29:30.130Z,14.00
2018-05-02T08:31:47.412Z,31.50
2018-05-02T08:32:51.892Z,20.75
2018-05-02T08:33:56.012Z,14.50
2018-05-02T08:35:00.138Z,21.50
2018-05-02T08:36:04.432Z,20.00
2018-05-02T08:37:08.877Z,29.00
2018-05-02T08:38:13.017Z,21.25
2018-05-02T08:39:17.162Z,27.50
2018-05-02T08:40:21.301Z,22.00
2018-05-02T08:41:25.925Z,29.50
2018-05-02T08:42:30.082Z,23.25
2018-05-02T08:43:34.619Z,16.00
2018-05-02T08:44:39.008Z,19.50
2018-05-02T08:45:43.180Z,19.50
2018-05-02T08:46:47.923Z,19.00
2018-05-02T08:47:52.095Z,21.00
2018-05-02T08:48:56.200Z,20.00
2018-05-02T08:50:00.777Z,13.50
2018-05-02T08:51:04.903Z,18.50
2018-05-02T08:52:09.074Z,29.00
2018-05-02T08:53:13.228Z,21.50
2018-05-02T08:54:17.359Z,20.00
2018-05-02T08:55:21.588Z,21.00
2018-05-02T08:56:25.781Z,30.25
2018-05-02T08:57:30.012Z,25.50
2018-05-02T08:58:34.183Z,22.00
2018-05-02T08:59:38.351Z,14.50
2018-05-02T09:00:42.959Z,23.00
2018-05-02T09:01:47.763Z,27.00
2018-05-02T09:02:52.596Z,29.75
2018-05-02T09:03:56.744Z,24.00
2018-05-02T09:05:00.880Z,23.50
2018-05-02T09:06:05.040Z,24.50
2018-05-02T09:07:09.248Z,26.00
2018-05-02T09:08:13.402Z,25.50
2018-05-02T09:09:17.930Z,25.00
2018-05-02T09:10:22.090Z,28.50
2018-05-02T09:11:27.182Z,27.00
2018-05-02T09:12:31.366Z,37.50
2018-05-02T09:13:35.504Z,21.25
2018-05-02T09:14:39.710Z,21.75
2018-05-02T09:15:44.551Z,27.50
2018-05-02T09:16:48.937Z,26.50
2018-05-02T09:17:53.395Z,24.00
2018-05-02T09:18:58.186Z,23.00
2018-05-02T09:20:02.377Z,26.00
2018-05-02T09:21:06.544Z,20.00
2018-05-02T09:22:10.666Z,21.00
2018-05-02T09:23:14.879Z,24.50
2018-05-02T09:24:19.117Z,17.50
2018-05-02T09:25:23.309Z,24.50
2018-05-02T09:26:27.803Z,22.00
2018-05-02T09:27:32.007Z,20.50
2018-05-02T09:28:36.167Z,38.00
2018-05-02T09:29:40.408Z,20.00
2018-05-02T09:30:44.983Z,31.50
2018-05-02T09:31:49.201Z,21.50
2018-05-02T09:32:53.700Z,20.50
2018-05-02T09:33:57.961Z,20.50
2018-05-02T09:35:02.118Z,17.50
2018-05-02T09:36:06.292Z,21.75
2018-05-02T09:37:10.419Z,22.25
2018-05-02T09:38:14.641Z,19.25
2018-05-02T09:39:19.096Z,19.50
2018-05-02T09:40:23.235Z,16.25
2018-05-02T09:41:27.358Z,15.25
2018-05-02T09:42:32.574Z,15.00
2018-05-02T09:43:36.710Z,15.25
2018-05-02T09:44:40.871Z,22.50
2018-05-02T09:45:45.810Z,28.50
2018-05-02T09:57:49.992Z,29.50
2018-05-02T09:58:54.122Z,19.50
2018-05-02T09:59:58.373Z,21.00
2018-05-02T10:01:03.009Z,30.75
2018-05-02T10:02:07.245Z,23.25
2018-05-02T10:03:11.505Z,26.00
2018-05-02T10:04:15.962Z,26.00
2018-05-02T10:05:20.806Z,29.00
2018-05-02T10:06:24.940Z,37.00
2018-05-02T10:07:29.100Z,34.00
2018-05-02T10:08:33.374Z,25.50
2018-05-02T10:09:38.406Z,33.00
2018-05-02T10:10:42.822Z,34.50
2018-05-02T10:11:46.967Z,29.00
2018-05-02T10:12:51.172Z,28.00
2018-05-02T10:13:55.418Z,33.00
2018-05-02T10:14:59.554Z,28.00
2018-05-02T10:16:04.134Z,36.50
2018-05-02T10:17:08.393Z,37.50
2018-05-02T10:18:12.776Z,26.50
2018-05-02T10:19:16.950Z,33.00
2018-05-02T10:20:21.089Z,34.50
2018-05-02T10:21:25.262Z,24.00
2018-05-02T10:22:30.338Z,25.25
2018-05-02T10:23:35.612Z,21.50
2018-05-02T10:24:40.418Z,23.00
2018-05-02T10:25:44.594Z,19.50
2018-05-02T10:26:48.737Z,30.50
2018-05-02T10:27:52.908Z,34.00
2018-05-02T10:28:57.193Z,24.00
2018-05-02T10:30:01.646Z,29.00
2018-05-02T10:31:05.810Z,22.25
2018-05-02T10:32:10.668Z,23.50
2018-05-02T10:33:15.558Z,20.00
2018-05-02T10:34:19.710Z,21.50
2018-05-02T10:35:23.878Z,28.50
2018-05-02T10:36:28.658Z,33.50
2018-05-02T10:37:32.807Z,20.50
2018-05-02T10:38:37.624Z,29.50
2018-05-02T10:39:41.720Z,22.00
2018-05-02T10:40:45.939Z,28.00
2018-05-02T10:41:50.550Z,24.00
2018-05-02T10:42:54.686Z,36.25
2018-05-02T10:43:58.858Z,27.00
2018-05-02T10:45:04.862Z,33.00
2018-05-02T10:46:09.000Z,27.00
2018-05-02T10:47:13.759Z,33.50
2018-05-02T10:48:17.908Z,38.00
2018-05-02T10:49:22.156Z,31.00
2018-05-02T10:50:26.355Z,24.00
2018-05-02T10:51:30.644Z,30.00
2018-05-02T10:52:34.940Z,31.75
2018-05-02T10:53:40.352Z,27.50
2018-05-02T10:54:45.237Z,32.50
2018-05-02T10:55:49.540Z,23.00
2018-05-02T10:56:53.680Z,34.00
2018-05-02T10:57:57.910Z,27.50
2018-05-02T10:59:02.122Z,37.50
2018-05-02T11:00:07.901Z,32.50
2018-05-02T11:01:12.338Z,33.00
2018-05-02T11:02:16.533Z,27.75
2018-05-02T11:03:20.708Z,37.00
2018-05-02T11:04:24.836Z,30.00
2018-05-02T11:05:28.972Z,31.50
2018-05-02T11:06:33.517Z,35.25
2018-05-02T11:07:38.448Z,26.00
2018-05-02T11:08:42.625Z,34.50
2018-05-02T11:09:46.768Z,21.00
2018-05-02T11:10:50.884Z,31.50
2018-05-02T11:11:55.123Z,27.00
2018-05-02T11:12:59.269Z,26.50
2018-05-02T11:14:03.488Z,33.75
2018-05-02T11:15:07.710Z,33.00
2018-05-02T11:16:12.057Z,38.50
2018-05-02T11:17:16.197Z,42.00
2018-05-02T11:18:20.323Z,28.50
2018-05-02T11:19:24.805Z,29.50
2018-05-02T11:20:29.091Z,19.75
2018-05-02T11:21:33.275Z,35.00
2018-05-02T11:22:37.393Z,22.00
2018-05-02T11:23:41.551Z,29.00
2018-05-02T11:24:46.112Z,32.50
2018-05-02T11:25:50.360Z,30.50
2018-05-02T11:26:54.617Z,33.25
2018-05-02T11:27:58.810Z,32.75
2018-05-02T11:29:02.932Z,41.00
2018-05-02T11:30:08.101Z,33.00
2018-05-02T11:31:12.560Z,35.00
2018-05-02T11:32:16.785Z,30.50
2018-05-02T11:33:20.994Z,38.50
2018-05-02T11:34:56.510Z,42.00
2018-05-02T11:36:00.659Z,30.50
2018-05-02T11:37:05.248Z,40.00
2018-05-02T11:38:30.271Z,38.00
2018-05-02T11:39:34.913Z,36.00
2018-05-02T11:40:39.376Z,30.50
2018-05-02T11:41:43.531Z,34.50
2018-05-02T11:42:48.079Z,35.50
2018-05-02T11:43:52.334Z,34.75
2018-05-02T11:44:56.589Z,31.50
2018-05-02T11:46:00.963Z,29.50
2018-05-02T11:47:05.148Z,31.50
2018-05-02T11:48:09.337Z,40.50
2018-05-02T11:49:13.848Z,44.50
2018-05-02T11:50:17.985Z,36.00
2018-05-02T11:51:22.193Z,29.50
2018-05-02T11:52:26.377Z,18.00
2018-05-02T11:53:30.660Z,40.00
2018-05-02T11:54:34.865Z,41.00
2018-05-02T11:55:39.308Z,37.00
2018-05-02T11:56:44.112Z,37.00
2018-05-02T11:57:49.012Z,25.50
2018-05-02T11:58:53.137Z,36.75
2018-05-02T11:59:57.404Z,38.75
2018-05-02T12:01:01.885Z,42.00
2018-05-02T12:02:06.443Z,33.00
2018-05-02T12:03:10.921Z,41.50
2018-05-02T12:04:15.054Z,23.50
2018-05-02T12:05:19.297Z,30.50
2018-05-02T12:06:23.464Z,27.50
2018-05-02T12:07:27.771Z,37.50
2018-05-02T12:08:31.980Z,28.00
2018-05-02T12:09:37.172Z,28.00
2018-05-02T12:10:42.004Z,41.75
2018-05-02T12:11:46.210Z,29.00
2018-05-02T12:12:50.521Z,26.00
2018-05-02T12:13:54.750Z,30.50
2018-05-02T12:14:59.264Z,25.00
2018-05-02T12:16:03.991Z,41.00
2018-05-02T12:17:08.250Z,26.00
2018-05-02T12:18:12.443Z,38.00
2018-05-02T12:19:16.971Z,35.00
2018-05-02T12:20:21.105Z,23.50
2018-05-02T12:21:25.616Z,30.00
2018-05-02T12:22:29.798Z,28.00
2018-05-02T12:23:34.034Z,24.50
2018-05-02T12:24:39.035Z,24.00
2018-05-02T12:25:43.192Z,26.50
2018-05-02T12:26:47.336Z,34.50
2018-05-02T12:27:51.934Z,17.00
2018-05-02T12:28:56.060Z,31.00
2018-05-02T12:30:00.212Z,23.00
2018-05-02T12:31:04.842Z,30.50
2018-05-02T12:32:09.369Z,39.75
2018-05-02T12:33:13.501Z,27.50
2018-05-02T12:34:17.942Z,15.75
2018-05-02T12:35:22.204Z,31.50
2018-05-02T12:36:26.468Z,37.00
2018-05-02T12:37:30.778Z,41.25
2018-05-02T12:38:35.040Z,42.00
2018-05-02T12:39:39.621Z,30.50
2018-05-02T12:40:44.621Z,36.25
2018-05-02T12:41:48.836Z,39.00
2018-05-02T12:42:53.051Z,40.00
2018-05-02T12:43:57.339Z,37.50
2018-05-02T12:45:03.377Z,30.25
2018-05-02T12:46:08.349Z,41.00
2018-05-02T12:47:12.613Z,33.00
2018-05-02T12:48:16.946Z,41.00
2018-05-02T12:49:21.194Z,18.00
2018-05-02T12:50:25.394Z,36.00
2018-05-02T12:51:29.602Z,36.75
2018-05-02T12:52:34.186Z,32.25
2018-05-02T12:53:38.362Z,21.50
2018-05-02T12:54:42.558Z,20.00
2018-05-02T12:55:46.724Z,22.50
2018-05-02T12:56:50.983Z,30.00
2018-05-02T12:57:55.191Z,28.25
2018-05-02T12:58:59.347Z,34.00
2018-05-02T13:00:09.766Z,26.50
2018-05-02T13:01:14.238Z,23.00
2018-05-02T13:02:18.441Z,25.00
2018-05-02T13:03:22.815Z,26.00
2018-05-02T13:04:27.623Z,34.25
2018-05-02T13:05:32.221Z,25.00
2018-05-02T13:06:36.418Z,32.25
2018-05-02T13:07:40.595Z,27.00
2018-05-02T13:08:44.771Z,38.00
2018-05-02T13:09:49.080Z,25.50
2018-05-02T13:10:53.294Z,31.50
2018-05-02T13:11:57.785Z,26.50
2018-05-02T13:13:02.097Z,24.50
2018-05-02T13:14:06.645Z,20.50
2018-05-02T13:15:12.819Z,29.25
2018-05-02T13:16:17.009Z,37.00
2018-05-02T13:17:21.359Z,21.00
2018-05-02T13:18:25.869Z,25.00
2018-05-02T13:19:30.061Z,22.00
2018-05-02T13:20:34.229Z,25.50
2018-05-02T13:21:39.376Z,28.50
2018-05-02T13:23:47.253Z,40.00
2018-05-02T13:24:51.828Z,36.25
2018-05-02T13:25:56.011Z,24.50
2018-05-02T13:27:00.171Z,19.75
2018-05-02T13:28:04.401Z,33.25
2018-05-02T13:29:08.719Z,24.50
2018-05-02T13:30:15.411Z,23.00
2018-05-02T13:31:20.021Z,30.00
2018-05-02T13:32:24.200Z,33.00
2018-05-02T13:33:28.495Z,29.50
2018-05-02T13:34:32.764Z,29.00
2018-05-02T13:35:36.941Z,25.50
2018-05-02T13:36:41.112Z,21.75
2018-05-02T13:37:45.665Z,16.50
2018-05-02T13:38:49.841Z,27.00
2018-05-02T13:39:54.142Z,21.00
2018-05-02T13:40:58.307Z,20.50
2018-05-02T13:42:02.500Z,32.50
2018-05-02T13:43:06.846Z,24.00
2018-05-02T13:44:11.117Z,39.50
2018-05-02T13:45:16.553Z,32.00
2018-05-02T13:46:20.740Z,26.50
2018-05-02T13:47:25.034Z,34.00
2018-05-02T13:48:29.273Z,25.75
2018-05-02T13:49:34.537Z,27.50
2018-05-02T13:50:38.708Z,32.50
2018-05-02T13:51:42.932Z,21.50
2018-05-02T13:52:47.169Z,35.75
2018-05-02T13:53:51.442Z,31.50
2018-05-02T13:54:55.606Z,18.00
2018-05-02T13:56:00.123Z,26.50
2018-05-02T13:57:04.334Z,26.50
2018-05-02T13:58:08.627Z,24.50
2018-05-02T13:59:12.919Z,31.00
2018-05-02T14:00:17.371Z,16.50
2018-05-02T14:01:21.710Z,20.75
2018-05-02T14:02:26.844Z,24.00
2018-05-02T14:03:31.073Z,22.00
2018-05-02T14:04:35.349Z,23.50
2018-05-02T14:05:39.585Z,22.75
2018-05-02T14:06:43.764Z,24.00
2018-05-02T14:07:47.977Z,32.00
2018-05-02T14:08:52.357Z,32.25
2018-05-02T14:09:56.565Z,30.50
2018-05-02T14:11:00.743Z,24.25
2018-05-02T14:12:05.054Z,21.00
2018-05-02T14:13:09.393Z,33.00
2018-05-02T14:14:13.920Z,28.00